Terminal Aerodrome Forecast
Issued by NWS

Home | Current Version | Previous Version | Text Only | Print | Product List | Glossary On
Versions: 1 2 3 4 5 6 7 8 9 10 11 12 13 14 15 16 17 18 19 20 21 22 23 24 25 26 27 28 29 30 31 32 33 34 35 36 37 38
096
FTAK31 PANC 231128
TAFAVD
TAF
PAVD 231128Z 2312/2412 10005KT P6SM -RA SCT060 OVC090
     FM231600 07010KT P6SM VCSH SCT080 OVC120
     FM232000 24007KT P6SM SCT040 SCT120
     FM240300 VRB04KT P6SM SCT040 SCT150
      AMD LTD TO CLD VIS AND WIND=

USA.gov is the U.S. government's official web portal to all federal, state and local government web resources and services.